Airport View

Enter AWOS ICAO identifier for current METAR.

ex. KFNL

KFTG 140048Z 32005KT 10SM SCT100 BKN180 01/M06 A2996

14 Dec 2019 02:05

Frequency: 119.025

Phone: 303-261-9104

Other Area AWOS: KDEN - KBKF - KAPA - KEIK

TAF KDEN 132339Z 1400/1506 36010KT P6SM FEW090 SCT120 BKN200 FM140200 06007KT P6SM FEW090 SCT120 BKN200 FM140400 15007KT P6SM SCT120 BKN150 FM141000 14008KT P6SM SCT040 BKN080 PROB30 1413/1417 5SM -SHSN BKN040 FM142000 08007KT P6SM SCT060 BKN110 FM150000 36007KT P6SM FEW060 SCT120 BKN200 FM150200 02007KT P6SM SCT030 BKN060 PROB30 1502/1506 3SM -SHSN BKN030